Home > Products > Valid Products > TAF

000
FTUS43 KJKL 231700
TAFSME
TAF
KSME 231720Z 2318/2418 36006KT P6SM SKC
     FM240000 00000KT P6SM SCT200
     FM241000 VRB03KT P6SM BKN110=



000
FTUS43 KJKL 231700
TAFLOZ
TAF
KLOZ 231720Z 2318/2418 33006KT P6SM SKC
     FM240000 00000KT P6SM SCT200
     FM241000 VRB03KT P6SM BKN110=



000
FTUS43 KJKL 231700
TAFJKL
TAF
KJKL 231720Z 2318/2418 30005KT P6SM SKC
     FM240000 VRB03KT P6SM SCT200
     FM241000 VRB03KT P6SM BKN110=



000
FTUS43 KJKL 231100
TAFSME
TAF
KSME 231121Z 2312/2412 02003KT P6SM SKC
     FM231400 34007KT P6SM SKC
     FM240900 09007KT P6SM BKN150=



000
FTUS43 KJKL 231100
TAFLOZ
TAF
KLOZ 231121Z 2312/2412 01003KT P6SM SKC
     FM231400 34007KT P6SM SKC
     FM240900 09007KT P6SM BKN150=



000
FTUS43 KJKL 231100
TAFJKL
TAF
KJKL 231121Z 2312/2412 02003KT P6SM SKC
     FM231400 34007KT P6SM SKC
     FM240900 09007KT P6SM BKN150=



000
FTUS43 KJKL 230500
TAFSME
TAF
KSME 230520Z 2306/2406 02007KT P6SM SKC
     FM231400 34007KT P6SM SKC=



000
FTUS43 KJKL 230500
TAFJKL
TAF
KJKL 230520Z 2306/2406 VRB06KT P6SM SKC
     FM231400 34007KT P6SM SKC=



000
FTUS43 KJKL 230500
TAFLOZ
TAF
KLOZ 230520Z 2306/2406 01006KT P6SM SKC
     FM231400 34007KT P6SM SKC=



000
FTUS43 KJKL 222300
TAFJKL
TAF
KJKL 222320Z 2300/2324 32010G18KT P6SM FEW050
     FM230100 31009KT P6SM SKC=



000
FTUS43 KJKL 222300
TAFSME
TAF
KSME 222320Z 2300/2324 34009G18KT P6SM FEW050
     FM230100 33009KT P6SM SKC=



000
FTUS43 KJKL 222300
TAFLOZ
TAF
KLOZ 222320Z 2300/2324 32009G18KT P6SM FEW050
     FM230100 32009KT P6SM SKC=



000
FTUS43 KJKL 221900 AAA
TAFLOZ
TAF AMD
KLOZ 221910Z 2219/2318 24007KT P6SM SCT030 OVC050
     FM222000 30010G18KT P6SM BKN035
     FM222300 32009KT P6SM SKC=



000
FTUS43 KJKL 221700
TAFLOZ
TAF
KLOZ 221720Z 2218/2318 24007KT P6SM BKN012 OVC050
     FM222000 30010G18KT P6SM BKN035
     FM222300 32009KT P6SM SKC=



000
FTUS43 KJKL 221700
TAFSME
TAF
KSME 221720Z 2218/2318 29009KT P6SM BKN015 OVC050
     FM221930 31010G18KT P6SM OVC035
     FM222200 33009KT P6SM SKC=



000
FTUS43 KJKL 221700
TAFJKL
TAF
KJKL 221720Z 2218/2318 30007KT P6SM OVC050
     FM222200 32010G18KT P6SM BKN035
     FM222300 31009KT P6SM SKC=



000
FTUS43 KJKL 221600 AAB
TAFLOZ
TAF AMD
KLOZ 221600Z 2216/2312 26007KT P6SM BKN015 OVC050
     FM221730 32010G17KT P6SM VCSH BKN035
     FM222100 33008KT P6SM SCT040=



000
FTUS43 KJKL 221400 AAB
TAFSME
TAF AMD
KSME 221448Z 2215/2312 28008KT P6SM BKN015 OVC050
     FM221700 32010G18KT P6SM VCSH OVC035
     FM222000 34009KT P6SM SCT040=



000
FTUS43 KJKL 221400 AAA
TAFLOZ
TAF AMD
KLOZ 221445Z 2215/2312 26007KT P6SM BKN025 OVC050
     FM221800 32010G17KT P6SM VCSH BKN035
     FM222100 33008KT P6SM SCT040=



000
FTUS43 KJKL 221200 AAA
TAFSME
TAF AMD
KSME 221200Z 2212/2312 28008KT P6SM VCSH BKN030 OVC050
     FM221500 32010G18KT P6SM VCSH OVC035
     FM222000 34009KT P6SM SCT040=



000
FTUS43 KJKL 221100
TAFSME
TAF
KSME 221126Z 2212/2312 28008KT P6SM VCSH BKN035 OVC050
     FM221500 32010G18KT P6SM VCSH OVC035
     FM222000 34009KT P6SM SCT040=



000
FTUS43 KJKL 221100
TAFJKL
TAF
KJKL 221126Z 2212/2312 29007KT P6SM VCTS BKN035CB OVC050
      TEMPO 2212/2214 4SM -SHRA BKN025 OVC040
     FM221600 32009G15KT P6SM VCSH BKN035
     FM222100 34009KT P6SM SCT040=



000
FTUS43 KJKL 221100
TAFLOZ
TAF
KLOZ 221126Z 2212/2312 26007KT P6SM VCTS BKN035CB OVC050
      TEMPO 2212/2214 4SM -SHRA BKN025 OVC040
     FM221600 32010G17KT P6SM VCSH BKN035
     FM222100 33008KT P6SM SCT040=



000
FTUS43 KJKL 220900 AAA
TAFLOZ
TAF AMD
KLOZ 220958Z 2210/2306 23003KT P6SM VCSH BKN090
     FM221100 24005KT 4SM -SHRA BR VCTS BKN030CB OVC050
     FM221400 27008KT 4SM -SHRA VCTS BKN015CB OVC030
     FM221700 32010G15KT P6SM VCSH OVC035
     FM222200 34007KT P6SM SCT040=



000
FTUS43 KJKL 220900 AAA
TAFSME
TAF AMD
KSME 220957Z 2210/2306 24003KT P6SM VCSH BKN060
     FM221100 24003KT 4SM -SHRA BR VCTS BKN030CB OVC050
     FM221300 28008KT 4SM -SHRA VCTS BKN015CB OVC030
     FM221800 32010G15KT P6SM VCSH OVC035
     FM222100 34009KT P6SM SCT040=



000
FTUS43 KJKL 220500
TAFLOZ
TAF
KLOZ 220536Z 2206/2306 23003KT P6SM VCSH BKN090
     FM221000 24005KT 4SM -SHRA BR VCTS BKN030CB OVC050
     FM221400 27008KT 4SM -SHRA VCTS BKN015CB OVC030
     FM221700 32010G15KT P6SM VCSH OVC035
     FM222200 34007KT P6SM SCT040=



000
FTUS43 KJKL 220500
TAFJKL
TAF
KJKL 220536Z 2206/2306 24005KT P6SM VCSH BKN090
     FM221100 VRB04KT 4SM -SHRA BR VCTS BKN025CB OVC050
     FM221400 29008KT 4SM -SHRA VCTS BKN015CB OVC030
     FM221800 32010G15KT P6SM BKN035
     FM222200 34009KT P6SM SCT040=



000
FTUS43 KJKL 220500
TAFSME
TAF
KSME 220536Z 2206/2306 24003KT P6SM VCSH BKN060
     FM220900 24003KT 4SM -SHRA BR VCTS BKN030CB OVC050
     FM221300 28008KT 4SM -SHRA VCTS BKN015CB OVC030
     FM221800 32010G15KT P6SM VCSH OVC035
     FM222100 34009KT P6SM SCT040=



000
FTUS43 KJKL 212300
TAFLOZ
TAF
KLOZ 212323Z 2200/2224 28007KT P6SM FEW050 BKN100
     FM220300 23003KT P6SM VCSH BKN060
     FM221000 24005KT 4SM -SHRA BR VCTS BKN030CB OVC050
     FM221400 27008KT 4SM -SHRA VCTS OVC015CB
     FM221800 32010G15KT P6SM VCSH OVC035=



000
FTUS43 KJKL 212300
TAFSME
TAF
KSME 212323Z 2200/2224 27005KT P6SM FEW050 BKN100
     FM220300 24003KT P6SM VCSH BKN060
     FM220800 24003KT 4SM -SHRA BR VCTS BKN030CB OVC050
     FM221300 28008KT 4SM -SHRA VCTS OVC015CB
     FM221800 31010G15KT P6SM VCSH OVC035=



000
FTUS43 KJKL 212300
TAFJKL
TAF
KJKL 212323Z 2200/2224 27006KT P6SM BKN100
     FM220400 24003KT P6SM VCSH BKN060
     FM221000 VRB04KT 4SM -SHRA BR VCTS BKN025CB OVC050
     FM221400 29008KT 4SM -SHRA VCTS OVC015CB
     FM221800 29010G15KT P6SM VCSH OVC035=



000
FTUS43 KJKL 211700
TAFJKL
TAF
KJKL 211720Z 2118/2218 27009KT P6SM SCT050 BKN100
     FM220200 26008KT P6SM VCSH SCT030 BKN050
     FM221000 27010KT 4SM -SHRA BR VCTS BKN030CB OVC050
     FM221500 26010G18KT 3SM -SHRA VCTS OVC015CB=



000
FTUS43 KJKL 211700
TAFSME
TAF
KSME 211720Z 2118/2218 25009KT P6SM BKN050
     FM220100 26008KT P6SM VCSH SCT030 BKN050
     FM220800 27009KT 4SM -SHRA BR VCTS BKN030CB OVC050
     FM221400 27010G18KT 3SM -SHRA VCTS OVC020CB=



000
FTUS43 KJKL 211700
TAFLOZ
TAF
KLOZ 211720Z 2118/2218 28009KT P6SM SCT050 BKN100
     FM220200 26007KT P6SM VCSH SCT030 BKN050
     FM220900 27008KT 4SM -SHRA BR VCTS BKN030CB OVC050
     FM221400 27010G18KT 3SM -SHRA VCTS OVC020CB=



000
FTUS43 KJKL 211100
TAFLOZ
TAF
KLOZ 211136Z 2112/2212 VRB04KT P6SM SCT250
     FM211800 25005KT P6SM SCT050 BKN100
     FM220200 26007KT P6SM VCSH SCT030 BKN050
     FM220900 27008KT 4SM -SHRA BR VCTS BKN030CB OVC050=



000
FTUS43 KJKL 211100
TAFJKL
TAF
KJKL 211136Z 2112/2212 VRB03KT P6SM SCT250
     FM211900 25006KT P6SM SCT050 BKN100
     FM220200 26008KT P6SM VCSH SCT030 BKN050
     FM221000 27010KT 4SM -SHRA BR VCTS BKN030CB OVC050=



000
FTUS43 KJKL 211100
TAFSME
TAF
KSME 211136Z 2112/2212 VRB04KT P6SM SCT250
     FM211700 24006KT P6SM BKN050
     FM220100 26008KT P6SM VCSH SCT030 BKN050
     FM220800 27009KT 4SM -SHRA BR VCTS BKN030CB OVC050=



000
FTUS43 KJKL 210500
TAFLOZ
TAF
KLOZ 210531Z 2106/2206 VRB04KT P6SM SCT250
     FM211800 25005KT P6SM SCT050 BKN100
     FM220200 26007KT P6SM VCSH SCT030 BKN050=



000
FTUS43 KJKL 210500
TAFJKL
TAF
KJKL 210531Z 2106/2206 VRB03KT P6SM SCT250
     FM211900 25006KT P6SM SCT050 BKN100
     FM220200 26008KT P6SM VCSH SCT030 BKN050=



000
FTUS43 KJKL 210500
TAFSME
TAF
KSME 210531Z 2106/2206 VRB04KT P6SM SCT250
     FM211700 24006KT P6SM BKN050
     FM220100 26008KT P6SM VCSH SCT030 BKN050=



000
FTUS43 KJKL 202300
TAFLOZ
TAF
KLOZ 202320Z 2100/2124 VRB04KT P6SM SCT250
     FM211700 24007KT P6SM BKN050=



000
FTUS43 KJKL 202300
TAFSME
TAF
KSME 202320Z 2100/2124 VRB04KT P6SM SCT250
     FM211700 24008KT P6SM BKN050=



000
FTUS43 KJKL 202300
TAFJKL
TAF
KJKL 202320Z 2100/2124 VRB03KT P6SM SCT250
     FM211900 27006KT P6SM BKN050=



    US Dept of Commerce
    National Oceanic and Atmospheric Administration
    National Weather Service
    1325 East West Highway
    Silver Spring, MD 20910
    Page Author: NWS Internet Services Team
Disclaimer
Information Quality
Credits
Glossary
Privacy Policy
Freedom of Information Act (FOIA)
About Us
Career Opportunities